createdAt,value
2018-03-22T00:00:28.473Z,28.13
2018-03-22T00:02:56.714Z,29.47
2018-03-22T00:05:24.928Z,24.33
2018-03-22T00:07:53.959Z,27.57
2018-03-22T00:10:22.121Z,27.30
2018-03-22T00:12:51.063Z,25.13
2018-03-22T00:15:19.232Z,25.83
2018-03-22T00:17:47.417Z,25.77
2018-03-22T00:20:15.640Z,24.33
2018-03-22T00:22:43.897Z,25.53
2018-03-22T00:25:12.180Z,24.80
2018-03-22T00:27:40.473Z,25.07
2018-03-22T00:30:09.525Z,25.00
2018-03-22T00:32:37.782Z,23.83
2018-03-22T00:35:05.952Z,22.00
2018-03-22T00:37:34.260Z,23.10
2018-03-22T00:40:02.486Z,24.30
2018-03-22T00:42:31.432Z,23.70
2018-03-22T00:44:59.596Z,24.63
2018-03-22T00:47:27.851Z,24.13
2018-03-22T00:49:56.014Z,24.47
2018-03-22T00:52:24.533Z,25.47
2018-03-22T00:54:52.885Z,23.97
2018-03-22T00:57:21.060Z,25.53
2018-03-22T00:59:49.302Z,22.00
2018-03-22T01:02:19.880Z,25.80
2018-03-22T01:04:48.110Z,22.87
2018-03-22T01:07:17.397Z,25.57
2018-03-22T01:09:45.533Z,26.90
2018-03-22T01:12:13.839Z,23.83
2018-03-22T01:14:43.532Z,24.87
2018-03-22T01:17:11.675Z,27.60
2018-03-22T01:19:39.834Z,23.50
2018-03-22T01:22:08.009Z,24.10
2018-03-22T01:24:36.271Z,23.57
2018-03-22T01:27:05.349Z,24.70
2018-03-22T01:29:33.503Z,25.00
2018-03-22T01:32:01.721Z,26.00
2018-03-22T01:34:29.862Z,22.23
2018-03-22T01:36:58.036Z,24.97
2018-03-22T01:39:26.297Z,31.20
2018-03-22T01:41:54.728Z,28.00
2018-03-22T01:44:22.898Z,24.33
2018-03-22T01:46:51.059Z,23.73
2018-03-22T01:49:20.055Z,23.27
2018-03-22T01:51:49.129Z,26.30
2018-03-22T01:54:17.305Z,26.00
2018-03-22T01:56:46.450Z,27.40
2018-03-22T01:59:14.631Z,25.33
2018-03-22T02:01:42.802Z,23.40
2018-03-22T02:04:10.984Z,24.47
2018-03-22T02:06:39.151Z,22.47
2018-03-22T02:09:09.003Z,23.63
2018-03-22T02:11:37.181Z,23.83
2018-03-22T02:14:05.375Z,24.63
2018-03-22T02:16:34.288Z,22.97
2018-03-22T02:19:02.476Z,25.27
2018-03-22T02:21:30.841Z,26.47
2018-03-22T02:23:59.000Z,21.37
2018-03-22T02:26:27.182Z,22.20
2018-03-22T02:28:56.204Z,24.57
2018-03-22T02:31:24.342Z,21.03
2018-03-22T02:33:52.487Z,24.60
2018-03-22T02:36:21.026Z,21.73
2018-03-22T02:38:49.176Z,24.47
2018-03-22T02:41:17.332Z,28.30
2018-03-22T02:43:46.259Z,25.13
2018-03-22T02:46:14.418Z,26.47
2018-03-22T02:48:42.557Z,26.10
2018-03-22T02:51:10.819Z,26.23
2018-03-22T02:53:39.049Z,24.47
2018-03-22T02:56:07.427Z,23.47
2018-03-22T02:58:36.494Z,26.60
2018-03-22T03:01:04.633Z,25.67
2018-03-22T03:03:32.804Z,25.13
2018-03-22T03:06:00.992Z,25.40
2018-03-22T03:08:29.165Z,24.10
2018-03-22T03:10:57.333Z,28.90
2018-03-22T03:13:25.681Z,22.97
2018-03-22T03:15:53.834Z,30.17
2018-03-22T03:18:22.038Z,25.53
2018-03-22T03:20:50.205Z,21.90
2018-03-22T03:23:18.539Z,22.93
2018-03-22T03:25:47.500Z,26.30
2018-03-22T03:28:15.679Z,23.57
2018-03-22T03:30:43.837Z,24.90
2018-03-22T03:33:11.992Z,23.30
2018-03-22T03:35:40.226Z,23.87
2018-03-22T03:38:09.227Z,22.27
2018-03-22T03:40:38.136Z,28.03
2018-03-22T03:43:06.422Z,23.93
2018-03-22T03:45:34.581Z,26.03
2018-03-22T03:48:02.740Z,25.00
2018-03-22T03:50:30.924Z,23.90
2018-03-22T03:52:59.077Z,23.60
2018-03-22T03:55:28.098Z,21.23
2018-03-22T03:57:56.745Z,23.43
2018-03-22T04:00:25.040Z,25.33
2018-03-22T04:02:53.943Z,27.83
2018-03-22T04:05:22.105Z,25.90
2018-03-22T04:07:50.271Z,28.80
2018-03-22T04:10:18.422Z,23.70
2018-03-22T04:12:46.574Z,28.07
2018-03-22T04:15:14.722Z,26.40
2018-03-22T04:17:42.878Z,29.30
2018-03-22T04:20:11.823Z,20.27
2018-03-22T04:22:39.960Z,23.20
2018-03-22T04:25:08.107Z,22.47
2018-03-22T04:27:37.028Z,23.70
2018-03-22T04:30:06.094Z,28.00
2018-03-22T04:32:35.015Z,26.77
2018-03-22T04:35:03.159Z,25.17
2018-03-22T04:37:32.084Z,26.87
2018-03-22T04:40:00.258Z,29.43
2018-03-22T04:42:28.504Z,31.50
2018-03-22T04:44:57.431Z,24.87
2018-03-22T04:47:25.714Z,27.50
2018-03-22T04:49:54.479Z,28.27
2018-03-22T04:52:22.639Z,23.73
2018-03-22T04:54:50.789Z,23.70
2018-03-22T04:57:19.764Z,24.57
2018-03-22T04:59:48.002Z,25.63
2018-03-22T05:02:16.317Z,26.47
2018-03-22T05:04:45.493Z,28.43
2018-03-22T05:07:13.867Z,32.40
2018-03-22T05:09:42.051Z,26.50
2018-03-22T05:12:10.211Z,29.93
2018-03-22T05:14:38.362Z,30.60
2018-03-22T05:17:06.515Z,32.43
2018-03-22T05:19:35.550Z,30.97
2018-03-22T05:22:03.875Z,32.70
2018-03-22T05:24:32.148Z,31.53
2018-03-22T05:27:01.175Z,33.73
2018-03-22T05:29:30.027Z,36.57
2018-03-22T05:31:58.167Z,32.80
2018-03-22T05:34:26.338Z,36.83
2018-03-22T05:36:54.628Z,39.43
2018-03-22T05:39:22.825Z,34.77
2018-03-22T05:41:51.127Z,32.83
2018-03-22T05:44:20.026Z,37.17
2018-03-22T05:46:48.190Z,36.10
2018-03-22T05:49:16.480Z,35.40
2018-03-22T05:51:45.063Z,35.57
2018-03-22T05:54:13.308Z,30.00
2018-03-22T05:56:41.532Z,32.70
2018-03-22T05:59:09.737Z,34.53
2018-03-22T06:01:38.682Z,33.50
2018-03-22T06:04:06.942Z,36.17
2018-03-22T06:06:35.867Z,37.83
2018-03-22T06:09:04.199Z,37.00
2018-03-22T06:11:33.239Z,36.27
2018-03-22T06:14:01.579Z,35.23
2018-03-22T06:16:30.521Z,36.50
2018-03-22T06:18:58.677Z,37.40
2018-03-22T06:21:26.874Z,37.50
2018-03-22T06:23:55.049Z,35.50
2018-03-22T06:26:23.220Z,35.83
2018-03-22T06:28:52.906Z,42.83
2018-03-22T06:31:21.127Z,36.73
2018-03-22T06:33:49.526Z,35.17
2018-03-22T06:36:17.717Z,38.70
2018-03-22T06:38:45.876Z,39.20
2018-03-22T06:41:14.800Z,39.13
2018-03-22T06:43:44.053Z,43.87
2018-03-22T06:46:12.257Z,43.27
2018-03-22T06:48:40.478Z,41.70
2018-03-22T06:51:08.631Z,44.13
2018-03-22T06:53:36.789Z,47.27
2018-03-22T06:56:04.955Z,50.60
2018-03-22T06:58:33.142Z,50.67
2018-03-22T07:01:01.412Z,44.17
2018-03-22T07:03:29.592Z,45.73
2018-03-22T07:05:57.750Z,50.83
2018-03-22T07:08:26.841Z,48.37
2018-03-22T07:10:55.061Z,50.50
2018-03-22T07:13:23.169Z,44.73
2018-03-22T07:15:52.349Z,53.93
2018-03-22T07:18:20.653Z,46.53
2018-03-22T07:20:49.567Z,49.93
2018-03-22T07:23:17.745Z,49.97
2018-03-22T07:25:46.138Z,51.17
2018-03-22T07:28:14.380Z,45.90
2018-03-22T07:30:43.411Z,52.43
2018-03-22T07:33:11.563Z,42.63
2018-03-22T07:35:40.421Z,42.33
2018-03-22T07:38:09.370Z,46.53
2018-03-22T07:40:38.350Z,43.00
2018-03-22T07:43:12.300Z,39.67
2018-03-22T07:45:40.506Z,40.20
2018-03-22T07:48:08.744Z,40.57
2018-03-22T07:50:36.886Z,40.13
2018-03-22T07:53:05.973Z,46.53
2018-03-22T07:55:34.152Z,38.83
2018-03-22T07:58:02.305Z,36.73
2018-03-22T08:00:30.502Z,36.27
2018-03-22T08:03:00.651Z,32.57
2018-03-22T08:05:29.043Z,35.27
2018-03-22T08:07:57.297Z,36.17
2018-03-22T08:10:25.441Z,36.28
2018-03-22T08:12:53.611Z,34.80
2018-03-22T08:15:22.147Z,36.47
2018-03-22T08:17:50.541Z,33.20
2018-03-22T08:20:19.674Z,34.03
2018-03-22T08:22:47.851Z,36.00
2018-03-22T08:25:16.069Z,31.17
2018-03-22T08:27:44.211Z,32.70
2018-03-22T08:30:12.356Z,34.20
2018-03-22T08:32:41.329Z,32.53
2018-03-22T08:35:10.243Z,30.10
2018-03-22T08:37:38.466Z,28.40
2018-03-22T08:40:06.603Z,33.90
2018-03-22T08:42:34.762Z,31.33
2018-03-22T08:45:02.912Z,29.87
2018-03-22T08:47:31.824Z,32.70
2018-03-22T08:50:00.112Z,28.23
2018-03-22T08:52:28.276Z,32.10
2018-03-22T08:54:56.427Z,30.53
2018-03-22T08:57:25.345Z,28.73
2018-03-22T08:59:53.518Z,28.30
2018-03-22T09:02:21.659Z,30.20
2018-03-22T09:04:50.573Z,28.80
2018-03-22T09:07:18.789Z,26.37
2018-03-22T09:09:48.640Z,26.03
2018-03-22T09:12:16.752Z,25.30
2018-03-22T09:14:44.914Z,29.50
2018-03-22T09:17:13.051Z,29.60
2018-03-22T09:19:41.231Z,24.43
2018-03-22T09:22:10.349Z,25.47
2018-03-22T09:24:38.671Z,21.33
2018-03-22T09:27:06.997Z,23.30
2018-03-22T09:29:35.307Z,21.07
2018-03-22T09:32:03.591Z,20.57
2018-03-22T09:34:32.639Z,22.27
2018-03-22T09:37:00.879Z,24.67
2018-03-22T09:39:29.288Z,24.23
2018-03-22T09:41:58.311Z,20.43
2018-03-22T09:44:27.312Z,22.30
2018-03-22T09:46:55.529Z,20.70
2018-03-22T09:49:23.700Z,23.90
2018-03-22T09:51:51.875Z,22.10
2018-03-22T09:54:20.008Z,20.57
2018-03-22T09:56:48.190Z,23.47
2018-03-22T09:59:16.366Z,21.17
2018-03-22T10:01:44.530Z,24.87
2018-03-22T10:04:12.660Z,22.23
2018-03-22T10:06:44.801Z,19.60
2018-03-22T10:09:12.967Z,21.70
2018-03-22T10:11:41.125Z,19.93
2018-03-22T10:14:09.286Z,19.73
2018-03-22T10:16:37.437Z,20.30
2018-03-22T10:19:06.270Z,18.57
2018-03-22T10:21:34.439Z,19.93
2018-03-22T10:24:02.574Z,20.13
2018-03-22T10:26:31.480Z,20.33
2018-03-22T10:28:59.639Z,21.63
2018-03-22T10:31:27.941Z,19.53
2018-03-22T10:33:56.124Z,20.20
2018-03-22T10:36:24.290Z,18.87
2018-03-22T10:38:52.432Z,18.30
2018-03-22T10:41:21.316Z,17.43
2018-03-22T10:43:50.284Z,18.73
2018-03-22T10:46:18.420Z,17.73
2018-03-22T10:48:46.561Z,16.57
2018-03-22T10:51:15.477Z,18.30
2018-03-22T10:53:43.750Z,18.07
2018-03-22T10:56:11.909Z,17.20
2018-03-22T10:58:40.083Z,17.83
2018-03-22T11:01:13.944Z,17.13
2018-03-22T11:03:48.196Z,17.97
2018-03-22T11:06:16.508Z,17.23
2018-03-22T11:08:44.757Z,17.23
2018-03-22T11:11:12.914Z,19.97
2018-03-22T11:13:41.848Z,20.20
2018-03-22T11:16:10.561Z,17.20
2018-03-22T11:18:38.880Z,18.50
2018-03-22T11:21:07.975Z,19.70
2018-03-22T11:23:36.254Z,16.93
2018-03-22T11:26:04.426Z,17.90
2018-03-22T11:28:33.335Z,17.43
2018-03-22T11:31:01.515Z,16.70
2018-03-22T11:33:29.856Z,18.27
2018-03-22T11:35:57.999Z,18.37
2018-03-22T11:38:26.574Z,17.63
2018-03-22T11:40:54.847Z,18.30
2018-03-22T11:43:23.112Z,20.20
2018-03-22T11:45:51.406Z,21.40
2018-03-22T11:48:19.561Z,21.80
2018-03-22T11:50:47.775Z,21.90
2018-03-22T11:53:16.172Z,24.83
2018-03-22T11:55:44.330Z,22.23
2018-03-22T11:58:12.591Z,22.27
2018-03-22T12:00:40.870Z,21.30
2018-03-22T12:03:09.110Z,20.53
2018-03-22T12:05:37.269Z,23.57
2018-03-22T12:08:05.454Z,21.07
2018-03-22T12:10:34.401Z,21.00
2018-03-22T12:13:02.520Z,19.73
2018-03-22T12:15:30.664Z,20.77
2018-03-22T12:17:59.069Z,21.40
2018-03-22T12:20:27.220Z,23.17
2018-03-22T12:22:55.354Z,19.97
2018-03-22T12:25:23.877Z,20.80
2018-03-22T12:27:52.056Z,19.50
2018-03-22T12:30:20.320Z,18.87
2018-03-22T12:32:49.235Z,17.17
2018-03-22T12:35:17.554Z,17.70
2018-03-22T12:37:45.687Z,17.40
2018-03-22T12:40:13.913Z,16.07
2018-03-22T12:42:42.078Z,17.00
2018-03-22T12:45:10.263Z,15.83
2018-03-22T12:47:38.444Z,18.47
2018-03-22T12:50:06.730Z,19.33
2018-03-22T12:52:35.641Z,18.27
2018-03-22T12:55:03.902Z,16.63
2018-03-22T12:57:32.802Z,17.57
2018-03-22T13:00:00.998Z,15.87
2018-03-22T13:02:29.170Z,14.90
2018-03-22T13:05:01.177Z,16.30
2018-03-22T13:07:29.339Z,15.90
2018-03-22T13:09:58.379Z,16.53
2018-03-22T13:12:26.544Z,16.40
2018-03-22T13:14:55.549Z,15.70
2018-03-22T13:17:23.684Z,19.53
2018-03-22T13:19:51.825Z,18.27
2018-03-22T13:22:19.994Z,15.93
2018-03-22T13:24:48.142Z,15.70
2018-03-22T13:27:16.286Z,18.63
2018-03-22T13:29:44.474Z,15.33
2018-03-22T13:32:12.700Z,17.17
2018-03-22T13:34:40.847Z,18.60
2018-03-22T13:37:09.039Z,16.40
2018-03-22T13:39:37.205Z,18.93
2018-03-22T13:42:05.438Z,17.37
2018-03-22T13:44:34.363Z,17.10
2018-03-22T13:47:02.538Z,17.30
2018-03-22T13:49:31.618Z,16.90
2018-03-22T13:51:59.969Z,17.00
2018-03-22T13:54:29.058Z,17.33
2018-03-22T13:56:57.199Z,17.63
2018-03-22T13:59:25.435Z,16.97
2018-03-22T14:01:54.996Z,17.97
2018-03-22T14:04:23.157Z,19.03
2018-03-22T14:06:51.850Z,21.07
2018-03-22T14:09:20.031Z,19.27
2018-03-22T14:11:48.791Z,18.00
2018-03-22T14:14:17.025Z,19.50
2018-03-22T14:16:45.982Z,20.33
2018-03-22T14:19:15.024Z,18.37
2018-03-22T14:21:43.181Z,18.77
2018-03-22T14:24:12.089Z,18.87
2018-03-22T14:26:40.998Z,19.83
2018-03-22T14:29:09.187Z,18.23
2018-03-22T14:31:37.336Z,20.43
2018-03-22T14:34:05.831Z,21.57
2018-03-22T14:36:34.124Z,23.40
2018-03-22T14:39:02.269Z,21.20
2018-03-22T14:41:30.452Z,18.97
2018-03-22T14:43:59.470Z,20.07
2018-03-22T14:46:27.614Z,18.97
2018-03-22T14:48:55.848Z,20.63
2018-03-22T14:51:24.596Z,21.60
2018-03-22T14:53:53.131Z,21.70
2018-03-22T14:56:21.297Z,22.27
2018-03-22T14:58:50.332Z,22.53
2018-03-22T15:01:18.996Z,19.07
2018-03-22T15:03:47.136Z,19.40
2018-03-22T15:06:15.498Z,21.67
2018-03-22T15:08:43.718Z,24.30
2018-03-22T15:11:12.628Z,21.50
2018-03-22T15:13:40.776Z,23.13
2018-03-22T15:16:09.819Z,19.77
2018-03-22T15:18:38.229Z,21.10
2018-03-22T15:21:06.607Z,19.97
2018-03-22T15:23:35.499Z,20.40
2018-03-22T15:26:03.713Z,21.13
2018-03-22T15:28:31.874Z,20.97
2018-03-22T15:31:00.802Z,23.37
2018-03-22T15:33:28.952Z,23.47
2018-03-22T15:35:57.115Z,24.73
2018-03-22T15:38:26.011Z,24.83
2018-03-22T15:40:54.325Z,28.27
2018-03-22T15:43:26.623Z,29.20
2018-03-22T15:45:54.784Z,25.83
2018-03-22T15:48:23.044Z,29.23
2018-03-22T15:50:51.327Z,30.23
2018-03-22T15:53:19.596Z,27.37
2018-03-22T15:55:48.819Z,32.00
2018-03-22T15:58:17.074Z,33.53
2018-03-22T16:00:45.230Z,29.50
2018-03-22T16:03:13.445Z,29.83
2018-03-22T16:05:41.744Z,31.63
2018-03-22T16:08:10.000Z,25.50
2018-03-22T16:10:38.278Z,33.30
2018-03-22T16:13:06.674Z,30.07
2018-03-22T16:15:35.585Z,34.43
2018-03-22T16:18:03.939Z,32.33
2018-03-22T16:20:32.859Z,30.87
2018-03-22T16:23:01.109Z,29.17
2018-03-22T16:25:30.028Z,27.27
2018-03-22T16:27:58.185Z,31.73
2018-03-22T16:30:26.326Z,31.03
2018-03-22T16:32:54.605Z,26.97
2018-03-22T16:35:22.945Z,27.47
2018-03-22T16:37:51.073Z,26.80
2018-03-22T16:40:20.015Z,27.17
2018-03-22T16:42:48.451Z,25.77
2018-03-22T16:45:17.476Z,31.33
2018-03-22T16:47:45.627Z,28.10
2018-03-22T16:50:13.782Z,26.80
2018-03-22T16:52:42.754Z,28.30
2018-03-22T16:55:10.911Z,29.90
2018-03-22T16:57:39.077Z,30.50
2018-03-22T17:00:07.333Z,29.87
2018-03-22T17:02:35.612Z,32.07
2018-03-22T17:05:03.771Z,35.57
2018-03-22T17:07:31.939Z,36.10
2018-03-22T17:10:00.079Z,35.23
2018-03-22T17:12:28.413Z,36.73
2018-03-22T17:14:56.567Z,38.03
2018-03-22T17:17:25.132Z,42.20
2018-03-22T17:19:54.309Z,42.30
2018-03-22T17:22:23.029Z,43.70
2018-03-22T17:24:51.140Z,40.60
2018-03-22T17:27:19.355Z,43.23
2018-03-22T17:29:48.286Z,43.73
2018-03-22T17:32:16.437Z,44.30
2018-03-22T17:34:45.343Z,48.10
2018-03-22T17:37:13.675Z,44.00
2018-03-22T17:39:41.865Z,46.30
2018-03-22T17:42:10.289Z,47.40
2018-03-22T17:44:38.583Z,49.50
2018-03-22T17:47:06.723Z,71.10
2018-03-22T17:49:34.925Z,55.47
2018-03-22T17:52:03.448Z,60.17
2018-03-22T17:54:31.628Z,70.83
2018-03-22T17:57:01.173Z,69.87
2018-03-22T17:59:29.330Z,68.57
2018-03-22T18:01:57.513Z,70.87
2018-03-22T18:04:25.678Z,69.83
2018-03-22T18:06:53.991Z,69.37
2018-03-22T18:09:22.195Z,50.93
2018-03-22T18:11:50.596Z,43.57
2018-03-22T18:14:19.521Z,58.43
2018-03-22T18:16:47.875Z,42.90
2018-03-22T18:19:16.067Z,43.17
2018-03-22T18:21:44.215Z,45.33
2018-03-22T18:24:13.202Z,43.30
2018-03-22T18:26:42.725Z,42.77
2018-03-22T18:29:10.892Z,44.33
2018-03-22T18:31:39.153Z,50.20
2018-03-22T18:34:08.216Z,46.97
2018-03-22T18:36:36.631Z,49.73
2018-03-22T18:39:05.660Z,56.63
2018-03-22T18:41:34.650Z,60.13
2018-03-22T18:44:02.907Z,70.10
2018-03-22T18:46:31.186Z,76.13
2018-03-22T18:48:59.353Z,79.73
2018-03-22T18:51:27.494Z,93.93
2018-03-22T18:53:57.282Z,95.83
2018-03-22T18:56:25.558Z,95.60
2018-03-22T18:58:53.712Z,95.67
2018-03-22T19:01:22.842Z,95.90
2018-03-22T19:03:52.000Z,100.00
2018-03-22T19:06:21.109Z,100.13
2018-03-22T19:08:49.271Z,105.43
2018-03-22T19:11:17.453Z,104.50
2018-03-22T19:13:46.016Z,108.70
2018-03-22T19:16:15.153Z,112.77
2018-03-22T19:18:43.350Z,117.20
2018-03-22T19:21:11.833Z,123.57
2018-03-22T19:23:40.054Z,123.03
2018-03-22T19:26:08.356Z,121.33
2018-03-22T19:28:36.562Z,125.77
2018-03-22T19:31:05.582Z,119.43
2018-03-22T19:33:33.775Z,111.57
2018-03-22T19:36:02.034Z,104.60
2018-03-22T19:38:30.920Z,97.83
2018-03-22T19:40:59.164Z,99.50
2018-03-22T19:43:27.357Z,95.13
2018-03-22T19:45:55.530Z,99.00
2018-03-22T19:48:23.808Z,95.93
2018-03-22T19:50:52.034Z,101.37
2018-03-22T19:53:20.493Z,96.10
2018-03-22T19:55:48.676Z,99.27
2018-03-22T19:58:16.834Z,102.47
2018-03-22T20:00:44.994Z,102.17
2018-03-22T20:03:13.200Z,103.00
2018-03-22T20:05:41.433Z,99.60
2018-03-22T20:08:09.579Z,95.33
2018-03-22T20:10:37.800Z,103.30
2018-03-22T20:13:06.118Z,90.43
2018-03-22T20:15:34.385Z,88.57
2018-03-22T20:18:02.556Z,92.50
2018-03-22T20:20:30.716Z,92.17
2018-03-22T20:23:00.636Z,98.30
2018-03-22T20:25:28.795Z,100.90
2018-03-22T20:27:57.529Z,96.40
2018-03-22T20:30:25.690Z,96.33
2018-03-22T20:32:53.986Z,88.73
2018-03-22T20:35:22.903Z,95.77
2018-03-22T20:37:51.821Z,97.87
2018-03-22T20:40:19.967Z,87.37
2018-03-22T20:42:48.129Z,85.37
2018-03-22T20:45:17.050Z,92.50
2018-03-22T20:47:46.433Z,85.10
2018-03-22T20:50:16.261Z,84.17
2018-03-22T20:52:44.502Z,89.90
2018-03-22T20:55:12.807Z,80.43
2018-03-22T20:57:40.948Z,79.80
2018-03-22T21:00:09.244Z,75.57
2018-03-22T21:02:38.184Z,74.33
2018-03-22T21:05:06.422Z,81.77
2018-03-22T21:07:34.703Z,90.17
2018-03-22T21:10:03.086Z,77.30
2018-03-22T21:12:31.251Z,88.60
2018-03-22T21:14:59.408Z,92.40
2018-03-22T21:17:28.348Z,96.27
2018-03-22T21:19:56.508Z,94.63
2018-03-22T21:22:24.699Z,94.00
2018-03-22T21:24:53.108Z,102.33
2018-03-22T21:27:21.298Z,96.63
2018-03-22T21:29:50.238Z,92.87
2018-03-22T21:32:18.411Z,98.73
2018-03-22T21:34:47.733Z,85.67
2018-03-22T21:37:15.903Z,101.57
2018-03-22T21:39:44.084Z,95.57
2018-03-22T21:42:12.240Z,89.57
2018-03-22T21:44:40.578Z,94.40
2018-03-22T21:47:20.638Z,96.13
2018-03-22T21:49:48.787Z,103.53
2018-03-22T21:52:28.884Z,103.93
2018-03-22T21:54:57.029Z,97.23
2018-03-22T21:57:26.215Z,99.87
2018-03-22T21:59:55.214Z,89.77
2018-03-22T22:02:23.476Z,85.67
2018-03-22T22:04:52.525Z,93.80
2018-03-22T22:07:20.895Z,76.13
2018-03-22T22:09:49.041Z,76.97
2018-03-22T22:12:17.199Z,67.30
2018-03-22T22:14:45.372Z,63.10
2018-03-22T22:17:14.410Z,63.87
2018-03-22T22:19:42.660Z,62.87
2018-03-22T22:22:11.682Z,55.43
2018-03-22T22:24:39.951Z,61.17
2018-03-22T22:27:08.118Z,57.07
2018-03-22T22:29:36.360Z,54.60
2018-03-22T22:32:05.309Z,58.37
2018-03-22T22:34:34.327Z,61.80
2018-03-22T22:37:02.494Z,53.00
2018-03-22T22:39:30.767Z,49.47
2018-03-22T22:41:58.925Z,51.10
2018-03-22T22:44:27.131Z,46.10
2018-03-22T22:46:56.062Z,45.07
2018-03-22T22:49:24.206Z,42.80
2018-03-22T22:51:52.476Z,35.23
2018-03-22T22:54:21.343Z,41.03
2018-03-22T22:56:49.515Z,38.53
2018-03-22T22:59:17.709Z,36.27
2018-03-22T23:01:45.990Z,31.77
2018-03-22T23:04:14.156Z,30.50
2018-03-22T23:06:42.331Z,30.40
2018-03-22T23:09:10.657Z,34.10
2018-03-22T23:11:38.933Z,25.50
2018-03-22T23:14:07.155Z,27.87
2018-03-22T23:16:35.306Z,25.43
2018-03-22T23:19:03.560Z,25.10
2018-03-22T23:21:32.016Z,25.67
2018-03-22T23:24:01.130Z,22.77
2018-03-22T23:26:29.299Z,27.10
2018-03-22T23:28:57.498Z,23.60
2018-03-22T23:31:25.724Z,24.83
2018-03-22T23:33:54.016Z,26.73
2018-03-22T23:36:22.957Z,25.17
2018-03-22T23:38:51.172Z,23.37
2018-03-22T23:41:20.099Z,27.00
2018-03-22T23:43:48.264Z,25.10
2018-03-22T23:46:16.497Z,22.67
2018-03-22T23:48:44.806Z,20.87
2018-03-22T23:51:12.988Z,20.60
2018-03-22T23:53:41.149Z,22.77
2018-03-22T23:56:10.112Z,22.97
2018-03-22T23:58:39.240Z,21.73
